ADDS METAR Data INFO
IDs: Format: Raw Decoded Include TAF

Data at: 1954 UTC 15 Dec 2017

K96D 151935Z AUTO 15009KT 4SM BR CLR M06/M06 A2967 RMK AO2
K96D 151915Z AUTO 16007KT 4SM BR CLR M06/M06 A2967 RMK AO2
K96D 151855Z AUTO 15009KT 4SM BR CLR M06/M06 A2968 RMK AO2
K96D 151835Z AUTO 16007KT 2 1/2SM BR CLR M07/M07 A2970 RMK AO2
K96D 151815Z AUTO 15010KT 3SM BR CLR M07/M07 A2972 RMK AO2
K96D 151755Z AUTO 17009KT 8SM CLR M07/M07 A2972 RMK AO2
K96D 151735Z AUTO 17011KT 10SM CLR M07/M07 A2974 RMK AO2
K96D 151715Z AUTO 14010KT 10SM CLR M07/M07 A2975 RMK AO2
K96D 151655Z AUTO 15009KT 10SM CLR M07/M07 A2975 RMK AO2
K96D 151635Z AUTO 14008KT 10SM CLR M08/M08 A2977 RMK AO2
K96D 151615Z AUTO 14007G12KT 10SM CLR M08/M08 A2977 RMK AO2
K96D 151555Z AUTO 14008KT 10SM CLR M08/M08 A2977 RMK AO2
K96D 151535Z AUTO 14007KT 10SM CLR M09/M08 A2978 RMK AO2
K96D 151515Z AUTO 14007KT 10SM CLR M09/M09 A2979 RMK AO2
K96D 151455Z AUTO 14007KT 10SM CLR M09/M09 A2979 RMK AO2
K96D 151435Z AUTO 14006KT 10SM CLR M09/M09 A2980 RMK AO2
K96D 151415Z AUTO 13007KT 10SM CLR M09/M09 A2980 RMK AO2
K96D 151355Z AUTO 13008KT 10SM CLR M09/M09 A2982 RMK AO2
K96D 151335Z AUTO 12008KT 10SM CLR M09/M09 A2983 RMK AO2
K96D 151315Z AUTO 12007KT 10SM CLR M09/M09 A2984 RMK AO2
K96D 151255Z AUTO 13006KT 5SM BR CLR M09/M09 A2984 RMK AO2
K96D 151235Z AUTO 13006KT 2 1/2SM BR CLR M09/M09 A2985 RMK AO2
K96D 151215Z AUTO 13006KT 2 1/2SM -TSSN CLR M09/M09 A2986 RMK AO2
K96D 151155Z AUTO 12005KT 5SM -SN CLR M09/M09 A2987 RMK AO2
K96D 151135Z AUTO 12005KT 6SM -SN CLR M09/M09 A2988 RMK AO2
K96D 151115Z AUTO 12006KT 5SM -SN CLR M09/M09 A2989 RMK AO2
K96D 151055Z AUTO 13006KT 7SM -SN CLR M09/M09 A2990 RMK AO2
K96D 151035Z AUTO 12004KT 10SM -SN CLR M09/M09 A2990 RMK AO2
K96D 151015Z AUTO 00000KT 10SM CLR M09/M08 A2990 RMK AO2
K96D 150955Z AUTO 00000KT 10SM CLR M08/M08 A2992 RMK AO2
K96D 150935Z AUTO 00000KT 10SM CLR M08/M08 A2993 RMK AO2
K96D 150915Z AUTO 34003KT 10SM CLR M08/M08 A2993 RMK AO2
K96D 150855Z AUTO 00000KT 10SM CLR M08/M08 A2994 RMK AO2
K96D 150835Z AUTO 33004KT 10SM CLR M08/M08 A2995 RMK AO2
K96D 150815Z AUTO 34006KT 10SM CLR M08/M08 A2995 RMK AO2
K96D 150755Z AUTO 34005KT 10SM CLR M08/M08 A2995 RMK AO2
K96D 150735Z AUTO 36006KT 10SM CLR M08/M08 A2996 RMK AO2
K96D 150715Z AUTO 35005KT 10SM CLR M08/M08 A2997 RMK AO2
K96D 150655Z AUTO 36007KT 10SM CLR M08/M08 A2997 RMK AO2
K96D 150635Z AUTO 35006KT 10SM CLR M08/M08 A2998 RMK AO2
K96D 150615Z AUTO 33005KT 10SM CLR M08/M08 A2999 RMK AO2
K96D 150555Z AUTO 33007KT 10SM CLR M08/M08 A2999 RMK AO2
K96D 150535Z AUTO 35005G10KT 10SM CLR M08/M08 A3000 RMK AO2
K96D 150515Z AUTO 34007KT 10SM CLR M08/M08 A3001 RMK AO2
K96D 150455Z AUTO 36008KT 10SM CLR M08/M08 A3001 RMK AO2
K96D 150435Z AUTO 35010KT 10SM CLR M08/M08 A3002 RMK AO2
K96D 150415Z AUTO 36011KT 10SM CLR M08/M07 A3002 RMK AO2
K96D 150355Z AUTO 36008G15KT 10SM CLR M07/M07 A3002 RMK AO2
K96D 150335Z AUTO 36012KT 10SM -SN CLR M07/M07 A3002 RMK AO2
K96D 150315Z AUTO 01011KT 10SM CLR M07/M07 A3003 RMK AO2
K96D 150255Z AUTO 01011KT 7SM CLR M07/M07 A3003 RMK AO2
K96D 150235Z AUTO 01007KT 7SM CLR M06/M06 A3003 RMK AO2
K96D 150215Z AUTO 36010KT 10SM CLR M06/M06 A3003 RMK AO2
K96D 150155Z AUTO 35006KT 10SM CLR M06/M06 A3003 RMK AO2
K96D 150135Z AUTO 34007KT 10SM CLR M06/M06 A3003 RMK AO2
K96D 150115Z AUTO 32007KT 10SM CLR M06/M06 A3003 RMK AO2
K96D 150055Z AUTO 33006KT 10SM CLR M06/M06 A3003 RMK AO2
K96D 150035Z AUTO 31004KT 10SM CLR M06/M06 A3004 RMK AO2
K96D 150015Z AUTO 32004KT 10SM CLR M06/M06 A3004 RMK AO2
K96D 142355Z AUTO 00000KT 9SM CLR M06/M06 A3004 RMK AO2
K96D 142335Z AUTO 00000KT 10SM CLR M06/M06 A3004 RMK AO2
K96D 142315Z AUTO 02004KT 10SM CLR M06/M06 A3004 RMK AO2
K96D 142255Z AUTO 00000KT 10SM CLR M06/M06 A3004 RMK AO2
K96D 142235Z AUTO 00000KT 10SM CLR M06/M06 A3004 RMK AO2
K96D 142215Z AUTO 00000KT 9SM CLR M06/M06 A3004 RMK AO2
K96D 142155Z AUTO 00000KT 10SM CLR M06/M06 A3004 RMK AO2
K96D 142135Z AUTO 04004KT 4SM -SN CLR M06/M06 A3004 RMK AO2
K96D 142115Z AUTO 02004KT 8SM -SN CLR M06/M06 A3003 RMK AO2
K96D 142055Z AUTO 36005KT 10SM CLR M06/M06 A3004 RMK AO2
K96D 142035Z AUTO 36005KT 10SM CLR M06/M06 A3004 RMK AO2
K96D 142015Z AUTO 34006KT 10SM CLR M06/M06 A3004 RMK AO2
K96D 141955Z AUTO 34006KT 10SM CLR M06/M06 A3004 RMK AO2
K96D 141935Z AUTO 33008KT 10SM CLR M07/M06 A3005 RMK AO2
K96D 141915Z AUTO 34008KT 10SM CLR M07/M07 A3006 RMK AO2
K96D 141855Z AUTO 34008KT 10SM CLR M07/M07 A3006 RMK AO2
K96D 141835Z AUTO 33009KT 10SM CLR M07/M07 A3007 RMK AO2
K96D 141815Z AUTO 34010KT 10SM CLR M07/M07 A3008 RMK AO2
K96D 141755Z AUTO 35009G14KT 8SM -SN CLR M07/M07 A3008 RMK AO2
K96D 141735Z AUTO 01009KT 4SM -SN CLR M07/M07 A3009 RMK AO2
K96D 141715Z AUTO 36010KT 10SM CLR M07/M07 A3010 RMK AO2
K96D 141655Z AUTO 34009G17KT 10SM CLR M07/M07 A3010 RMK AO2
K96D 141635Z AUTO 34013KT 8SM CLR M07/M07 A3010 RMK AO2
K96D 141615Z AUTO 35009G17KT 3SM -SN CLR M07/M07 A3009 RMK AO2
K96D 141555Z AUTO 34016KT 10SM CLR M07/M07 A3009 RMK AO2
K96D 141535Z AUTO 33016KT 10SM CLR M07/M07 A3008 RMK AO2
K96D 141515Z AUTO 35009KT 1 1/2SM -SN VV007 M07/M07 A3008 RMK AO2
K96D 141455Z AUTO 33013KT 7SM CLR M07/M06 A3006 RMK AO2
K96D 141435Z AUTO 34013G19KT 9SM CLR M06/M06 A3006 RMK AO2
K96D 141415Z AUTO 34013G19KT 8SM -SN CLR M06/M06 A3005 RMK AO2
K96D 141355Z AUTO 34018KT 9SM CLR M06/M06 A3004 RMK AO2
K96D 141335Z AUTO 33017G22KT 10SM -SN CLR M06/M06 A3003 RMK AO2
K96D 141315Z AUTO 33013KT 5SM -SN CLR M06/M06 A3003 RMK AO2
K96D 141255Z AUTO 32012KT 4SM -SN CLR M06/M06 A3002 RMK AO2
K96D 141235Z AUTO 32009KT 9SM -SN CLR M06/M06 A3002 RMK AO2
K96D 141215Z AUTO 32008KT 10SM -SN CLR M06/M06 A3001 RMK AO2
K96D 141155Z AUTO 32009KT 10SM CLR M06/M06 A3000 RMK AO2
K96D 141135Z AUTO 31008KT 10SM CLR M06/M06 A2999 RMK AO2
K96D 141115Z AUTO 32007KT 10SM CLR M06/M06 A2998 RMK AO2
K96D 141055Z AUTO 32006KT 10SM CLR M06/M06 A2999 RMK AO2
K96D 141035Z AUTO 32010KT 10SM CLR M06/M06 A2999 RMK AO2
K96D 141015Z AUTO 31005KT 10SM CLR M06/M06 A2999 RMK AO2
K96D 140955Z AUTO 5.45833305KT 9SM -SN CLR M06/M06 A2998 RMK AO2
K96D 140935Z AUTO 32007KT 10SM -SN CLR M06/M06 A2999 RMK AO2
K96D 140915Z AUTO 32007KT 10SM CLR M06/M06 A2999 RMK AO2
K96D 140855Z AUTO 32005KT 10SM CLR M07/M07 A2998 RMK AO2
K96D 140835Z AUTO 31004KT 10SM CLR M07/M07 A2998 RMK AO2
K96D 140815Z AUTO 29005KT 10SM CLR M07/M07 A2997 RMK AO2
K96D 140755Z AUTO 27005KT 10SM CLR M07/M07 A2996 RMK AO2